sensor_id;sensor_type;location;lat;lon;timestamp;P1;durP1;ratioP1;P2;durP2;ratioP2
71902;SDS011;59778;50.310;18.780;2022-08-04T00:14:52;16.53;;;12.10;;
71902;SDS011;59778;50.310;18.780;2022-08-04T00:30:17;17.37;;;13.10;;
71902;SDS011;59778;50.310;18.780;2022-08-04T01:17:49;17.50;;;13.33;;
71902;SDS011;59778;50.310;18.780;2022-08-04T01:33:04;20.07;;;14.47;;
71902;SDS011;59778;50.310;18.780;2022-08-04T01:48:29;20.87;;;13.87;;
71902;SDS011;59778;50.310;18.780;2022-08-04T02:03:51;18.83;;;14.03;;
71902;SDS011;59778;50.310;18.780;2022-08-04T02:50:27;22.83;;;15.23;;
71902;SDS011;59778;50.310;18.780;2022-08-04T03:06:18;19.67;;;13.87;;
71902;SDS011;59778;50.310;18.780;2022-08-04T03:53:41;25.17;;;16.17;;
71902;SDS011;59778;50.310;18.780;2022-08-04T05:27:45;29.30;;;20.47;;
71902;SDS011;59778;50.310;18.780;2022-08-04T05:43:11;27.97;;;18.63;;
71902;SDS011;59778;50.310;18.780;2022-08-04T05:58:34;24.23;;;14.70;;
71902;SDS011;59778;50.310;18.780;2022-08-04T06:13:56;21.87;;;11.13;;
71902;SDS011;59778;50.310;18.780;2022-08-04T06:29:20;18.47;;;12.43;;
71902;SDS011;59778;50.310;18.780;2022-08-04T06:44:51;15.07;;;11.30;;
71902;SDS011;59778;50.310;18.780;2022-08-04T07:00:15;12.80;;;10.30;;
71902;SDS011;59778;50.310;18.780;2022-08-04T07:15:38;16.47;;;8.10;;
71902;SDS011;59778;50.310;18.780;2022-08-04T07:31:01;10.77;;;7.00;;
71902;SDS011;59778;50.310;18.780;2022-08-04T07:46:24;9.83;;;7.30;;
71902;SDS011;59778;50.310;18.780;2022-08-04T08:01:46;11.60;;;7.53;;
71902;SDS011;59778;50.310;18.780;2022-08-04T08:17:07;8.70;;;6.20;;
71902;SDS011;59778;50.310;18.780;2022-08-04T08:32:29;10.73;;;6.30;;
71902;SDS011;59778;50.310;18.780;2022-08-04T09:50:37;8.77;;;4.83;;
71902;SDS011;59778;50.310;18.780;2022-08-04T10:22:20;10.13;;;4.80;;
71902;SDS011;59778;50.310;18.780;2022-08-04T10:53:33;9.30;;;5.90;;
71902;SDS011;59778;50.310;18.780;2022-08-04T11:08:58;7.73;;;4.97;;
71902;SDS011;59778;50.310;18.780;2022-08-04T11:24:31;9.33;;;6.13;;
71902;SDS011;59778;50.310;18.780;2022-08-04T11:40:05;8.50;;;5.20;;
71902;SDS011;59778;50.310;18.780;2022-08-04T11:55:31;9.20;;;6.03;;
71902;SDS011;59778;50.310;18.780;2022-08-04T12:11:20;8.20;;;5.60;;
71902;SDS011;59778;50.310;18.780;2022-08-04T12:26:52;7.70;;;4.80;;
71902;SDS011;59778;50.310;18.780;2022-08-04T12:42:19;6.93;;;4.70;;
71902;SDS011;59778;50.310;18.780;2022-08-04T12:57:45;7.47;;;4.50;;
71902;SDS011;59778;50.310;18.780;2022-08-04T13:13:16;6.07;;;3.97;;
71902;SDS011;59778;50.310;18.780;2022-08-04T13:28:40;7.03;;;4.47;;
71902;SDS011;59778;50.310;18.780;2022-08-04T13:44:04;8.80;;;4.30;;
71902;SDS011;59778;50.310;18.780;2022-08-04T13:59:32;6.23;;;4.53;;
71902;SDS011;59778;50.310;18.780;2022-08-04T14:14:56;7.57;;;4.30;;
71902;SDS011;59778;50.310;18.780;2022-08-04T14:30:33;6.70;;;4.00;;
71902;SDS011;59778;50.310;18.780;2022-08-04T14:46:02;7.83;;;4.13;;
71902;SDS011;59778;50.310;18.780;2022-08-04T15:01:24;7.60;;;4.10;;
71902;SDS011;59778;50.310;18.780;2022-08-04T15:16:47;6.07;;;4.07;;
71902;SDS011;59778;50.310;18.780;2022-08-04T15:32:08;5.80;;;3.83;;
71902;SDS011;59778;50.310;18.780;2022-08-04T15:47:30;6.60;;;4.00;;
71902;SDS011;59778;50.310;18.780;2022-08-04T16:02:52;7.03;;;4.50;;
71902;SDS011;59778;50.310;18.780;2022-08-04T16:18:58;10.67;;;5.60;;
71902;SDS011;59778;50.310;18.780;2022-08-04T16:33:57;7.70;;;4.90;;
71902;SDS011;59778;50.310;18.780;2022-08-04T16:49:20;11.03;;;4.70;;
71902;SDS011;59778;50.310;18.780;2022-08-04T17:04:41;7.57;;;4.37;;
71902;SDS011;59778;50.310;18.780;2022-08-04T17:20:02;8.43;;;4.33;;
71902;SDS011;59778;50.310;18.780;2022-08-04T17:35:24;9.73;;;4.63;;
71902;SDS011;59778;50.310;18.780;2022-08-04T17:50:45;7.30;;;4.77;;
71902;SDS011;59778;50.310;18.780;2022-08-04T18:06:10;9.67;;;5.03;;
71902;SDS011;59778;50.310;18.780;2022-08-04T18:21:32;8.33;;;5.00;;
71902;SDS011;59778;50.310;18.780;2022-08-04T18:36:54;8.40;;;4.83;;
71902;SDS011;59778;50.310;18.780;2022-08-04T18:52:17;10.30;;;4.60;;
71902;SDS011;59778;50.310;18.780;2022-08-04T19:07:43;8.80;;;4.23;;
71902;SDS011;59778;50.310;18.780;2022-08-04T19:23:04;8.40;;;4.40;;
71902;SDS011;59778;50.310;18.780;2022-08-04T19:38:25;5.70;;;4.00;;
71902;SDS011;59778;50.310;18.780;2022-08-04T19:53:49;9.17;;;4.63;;
71902;SDS011;59778;50.310;18.780;2022-08-04T20:09:10;10.00;;;4.33;;
71902;SDS011;59778;50.310;18.780;2022-08-04T20:24:35;7.93;;;4.43;;
71902;SDS011;59778;50.310;18.780;2022-08-04T20:39:57;10.37;;;4.30;;
71902;SDS011;59778;50.310;18.780;2022-08-04T20:55:20;7.87;;;4.17;;
71902;SDS011;59778;50.310;18.780;2022-08-04T21:10:41;9.77;;;4.00;;
71902;SDS011;59778;50.310;18.780;2022-08-04T21:26:02;7.77;;;4.00;;
71902;SDS011;59778;50.310;18.780;2022-08-04T21:41:24;10.47;;;4.80;;
71902;SDS011;59778;50.310;18.780;2022-08-04T21:56:45;10.67;;;5.03;;
71902;SDS011;59778;50.310;18.780;2022-08-04T22:12:06;8.47;;;4.23;;
71902;SDS011;59778;50.310;18.780;2022-08-04T22:27:27;7.33;;;4.20;;
71902;SDS011;59778;50.310;18.780;2022-08-04T22:43:07;8.50;;;4.30;;
71902;SDS011;59778;50.310;18.780;2022-08-04T22:58:28;7.63;;;4.40;;
71902;SDS011;59778;50.310;18.780;2022-08-04T23:13:49;8.80;;;4.50;;
71902;SDS011;59778;50.310;18.780;2022-08-04T23:29:10;8.00;;;4.30;;
71902;SDS011;59778;50.310;18.780;2022-08-04T23:44:32;10.90;;;4.90;;
71902;SDS011;59778;50.310;18.780;2022-08-04T23:59:53;9.37;;;4.50;;
